Disclaimer

Please do not use the information listed here in-flight or in-navigation, as they are not provided to us by the airports but are provided by volunteers, so they might be outdated.

Search


Regions


Airport information page

Radio informations:
LORRAINE APP - 127.25 MHz

Airport informations:
Latitude: 48° 41' 31.45" N
Longitude: 006° 13' 49.65" E
Elevation: 751 feet - 229 meters
Operating hours: Remarks
Operating agency: Civil government, landing fees and diplomatic clearance may be required
Timezone: UTC+1(+2DT) - Last Sunday in March to last Sunday in October
Fuel: Jet A1, without icing nhibitor.

100/130 MIL Spec, low lead, aviation gasoline (BLUE)

Runway information:
03/21 - 4593 x 131 feet< - >1400 x 40 meters

Recent METARs:
LFSN 211830Z AUTO 07008KT 7000 OVC011 02/M00 Q1017
LFSN 211900Z AUTO 06008KT 7000 OVC010 02/M00 Q1017
LFSN 211930Z AUTO 06006KT 7000 OVC010 02/M00 Q1017

Airport on the map: